sensor_id;sensor_type;location;lat;lon;timestamp;pressure;altitude;pressure_sealevel;temperature;humidity
63321;BME280;49449;48.800;9.534;2023-03-18T00:00:27;98117.53;;;10.75;37.13
63321;BME280;49449;48.800;9.534;2023-03-18T00:02:55;98115.94;;;10.74;37.04
63321;BME280;49449;48.800;9.534;2023-03-18T00:05:23;98113.28;;;10.74;37.05
63321;BME280;49449;48.800;9.534;2023-03-18T00:07:51;98116.53;;;10.64;37.04
63321;BME280;49449;48.800;9.534;2023-03-18T00:10:19;98117.97;;;10.55;37.18
63321;BME280;49449;48.800;9.534;2023-03-18T00:12:48;98119.56;;;10.56;37.14
63321;BME280;49449;48.800;9.534;2023-03-18T00:15:16;98119.25;;;10.52;36.98
63321;BME280;49449;48.800;9.534;2023-03-18T00:17:45;98119.88;;;10.42;37.33
63321;BME280;49449;48.800;9.534;2023-03-18T00:20:15;98112.75;;;10.43;37.37
63321;BME280;49449;48.800;9.534;2023-03-18T00:22:44;98124.94;;;10.44;37.44
63321;BME280;49449;48.800;9.534;2023-03-18T00:25:13;98120.66;;;10.43;37.31
63321;BME280;49449;48.800;9.534;2023-03-18T00:27:41;98130.09;;;10.39;37.30
63321;BME280;49449;48.800;9.534;2023-03-18T00:30:11;98130.56;;;10.36;37.26
63321;BME280;49449;48.800;9.534;2023-03-18T00:32:39;98129.00;;;10.35;37.19
63321;BME280;49449;48.800;9.534;2023-03-18T00:35:08;98127.59;;;10.32;37.15
63321;BME280;49449;48.800;9.534;2023-03-18T00:37:36;98131.84;;;10.33;37.16
63321;BME280;49449;48.800;9.534;2023-03-18T00:40:06;98131.19;;;10.26;37.40
63321;BME280;49449;48.800;9.534;2023-03-18T00:42:37;98133.34;;;10.29;37.21
63321;BME280;49449;48.800;9.534;2023-03-18T00:45:10;98123.59;;;10.30;37.38
63321;BME280;49449;48.800;9.534;2023-03-18T00:47:39;98132.00;;;10.27;37.32
63321;BME280;49449;48.800;9.534;2023-03-18T00:50:09;98136.94;;;10.23;37.52
63321;BME280;49449;48.800;9.534;2023-03-18T00:52:37;98139.03;;;10.21;37.50
63321;BME280;49449;48.800;9.534;2023-03-18T00:55:07;98140.38;;;10.23;37.72
63321;BME280;49449;48.800;9.534;2023-03-18T00:57:36;98146.00;;;10.15;37.76
63321;BME280;49449;48.800;9.534;2023-03-18T01:00:05;98151.13;;;10.05;37.93
63321;BME280;49449;48.800;9.534;2023-03-18T01:02:34;98160.84;;;10.04;38.05
63321;BME280;49449;48.800;9.534;2023-03-18T01:05:02;98156.84;;;10.02;38.37
63321;BME280;49449;48.800;9.534;2023-03-18T01:07:30;98158.47;;;10.03;38.06
63321;BME280;49449;48.800;9.534;2023-03-18T01:09:58;98157.31;;;9.99;38.12
63321;BME280;49449;48.800;9.534;2023-03-18T01:12:26;98148.38;;;10.00;38.18
63321;BME280;49449;48.800;9.534;2023-03-18T01:14:54;98152.25;;;9.97;38.14
63321;BME280;49449;48.800;9.534;2023-03-18T01:17:22;98149.06;;;9.95;38.15
63321;BME280;49449;48.800;9.534;2023-03-18T01:19:51;98150.56;;;9.91;38.04
63321;BME280;49449;48.800;9.534;2023-03-18T01:22:19;98142.88;;;9.90;38.21
63321;BME280;49449;48.800;9.534;2023-03-18T01:24:47;98149.75;;;9.79;38.12
63321;BME280;49449;48.800;9.534;2023-03-18T01:27:14;98141.03;;;9.78;38.26
63321;BME280;49449;48.800;9.534;2023-03-18T01:29:42;98148.25;;;9.83;38.16
63321;BME280;49449;48.800;9.534;2023-03-18T01:32:12;98152.31;;;9.85;38.09
63321;BME280;49449;48.800;9.534;2023-03-18T01:34:39;98152.72;;;9.82;38.14
63321;BME280;49449;48.800;9.534;2023-03-18T01:37:12;98154.81;;;9.80;38.35
63321;BME280;49449;48.800;9.534;2023-03-18T01:39:39;98148.25;;;9.83;38.08
63321;BME280;49449;48.800;9.534;2023-03-18T01:42:07;98150.44;;;9.74;38.03
63321;BME280;49449;48.800;9.534;2023-03-18T01:44:35;98156.31;;;9.64;38.22
63321;BME280;49449;48.800;9.534;2023-03-18T01:47:03;98147.00;;;9.62;38.21
63321;BME280;49449;48.800;9.534;2023-03-18T01:49:34;98152.31;;;9.50;38.48
63321;BME280;49449;48.800;9.534;2023-03-18T01:52:05;98155.41;;;9.47;38.31
63321;BME280;49449;48.800;9.534;2023-03-18T01:54:39;98144.38;;;9.38;38.33
63321;BME280;49449;48.800;9.534;2023-03-18T01:57:08;98151.03;;;9.41;38.35
63321;BME280;49449;48.800;9.534;2023-03-18T01:59:39;98145.41;;;9.37;38.33
63321;BME280;49449;48.800;9.534;2023-03-18T02:02:09;98144.94;;;9.28;38.38
63321;BME280;49449;48.800;9.534;2023-03-18T02:04:42;98146.22;;;9.26;38.49
63321;BME280;49449;48.800;9.534;2023-03-18T02:07:15;98132.59;;;9.29;38.43
63321;BME280;49449;48.800;9.534;2023-03-18T02:09:45;98136.59;;;9.32;38.50
63321;BME280;49449;48.800;9.534;2023-03-18T02:12:20;98135.66;;;9.26;38.79
63321;BME280;49449;48.800;9.534;2023-03-18T02:14:50;98122.59;;;9.31;38.67
63321;BME280;49449;48.800;9.534;2023-03-18T02:17:21;98133.72;;;9.33;38.68
63321;BME280;49449;48.800;9.534;2023-03-18T02:19:58;98135.22;;;9.29;38.69
63321;BME280;49449;48.800;9.534;2023-03-18T02:22:30;98139.88;;;9.27;39.01
63321;BME280;49449;48.800;9.534;2023-03-18T02:25:10;98143.47;;;9.33;38.93
63321;BME280;49449;48.800;9.534;2023-03-18T02:27:43;98150.91;;;9.36;38.67
63321;BME280;49449;48.800;9.534;2023-03-18T02:30:15;98150.69;;;9.37;38.47
63321;BME280;49449;48.800;9.534;2023-03-18T02:32:44;98148.78;;;9.02;38.57
63321;BME280;49449;48.800;9.534;2023-03-18T02:35:13;98156.97;;;9.01;38.77
63321;BME280;49449;48.800;9.534;2023-03-18T02:37:41;98144.59;;;9.13;38.66
63321;BME280;49449;48.800;9.534;2023-03-18T02:40:15;98151.00;;;9.17;38.62
63321;BME280;49449;48.800;9.534;2023-03-18T02:42:46;98150.66;;;9.14;38.76
63321;BME280;49449;48.800;9.534;2023-03-18T02:45:25;98152.81;;;9.05;38.82
63321;BME280;49449;48.800;9.534;2023-03-18T02:47:59;98159.34;;;9.02;38.88
63321;BME280;49449;48.800;9.534;2023-03-18T02:50:29;98151.81;;;9.06;38.83
63321;BME280;49449;48.800;9.534;2023-03-18T02:52:58;98154.53;;;9.11;38.67
63321;BME280;49449;48.800;9.534;2023-03-18T02:55:26;98154.09;;;9.14;38.71
63321;BME280;49449;48.800;9.534;2023-03-18T02:57:55;98155.50;;;9.17;38.84
63321;BME280;49449;48.800;9.534;2023-03-18T03:00:23;98149.06;;;9.13;39.08
63321;BME280;49449;48.800;9.534;2023-03-18T03:02:50;98146.19;;;9.14;38.88
63321;BME280;49449;48.800;9.534;2023-03-18T03:05:18;98147.25;;;9.13;38.71
63321;BME280;49449;48.800;9.534;2023-03-18T03:07:47;98154.31;;;9.13;38.53
63321;BME280;49449;48.800;9.534;2023-03-18T03:10:18;98151.47;;;9.14;38.26
63321;BME280;49449;48.800;9.534;2023-03-18T03:12:46;98153.31;;;9.14;38.56
63321;BME280;49449;48.800;9.534;2023-03-18T03:15:15;98160.63;;;9.11;38.52
63321;BME280;49449;48.800;9.534;2023-03-18T03:17:43;98151.13;;;9.10;39.14
63321;BME280;49449;48.800;9.534;2023-03-18T03:20:11;98159.47;;;9.07;40.69
63321;BME280;49449;48.800;9.534;2023-03-18T03:22:41;98167.38;;;9.07;40.65
63321;BME280;49449;48.800;9.534;2023-03-18T03:25:09;98181.25;;;9.03;39.90
63321;BME280;49449;48.800;9.534;2023-03-18T03:27:37;98173.78;;;9.00;39.08
63321;BME280;49449;48.800;9.534;2023-03-18T03:30:09;98171.09;;;8.88;38.75
63321;BME280;49449;48.800;9.534;2023-03-18T03:32:39;98174.66;;;8.63;39.04
63321;BME280;49449;48.800;9.534;2023-03-18T03:35:10;98178.44;;;8.55;38.99
63321;BME280;49449;48.800;9.534;2023-03-18T03:37:39;98175.72;;;8.44;39.42
63321;BME280;49449;48.800;9.534;2023-03-18T03:40:08;98170.72;;;8.24;39.86
63321;BME280;49449;48.800;9.534;2023-03-18T03:42:37;98173.06;;;8.13;39.65
63321;BME280;49449;48.800;9.534;2023-03-18T03:45:06;98177.31;;;8.14;39.82
63321;BME280;49449;48.800;9.534;2023-03-18T03:47:35;98198.19;;;8.28;39.79
63321;BME280;49449;48.800;9.534;2023-03-18T03:50:05;98195.06;;;8.38;39.92
63321;BME280;49449;48.800;9.534;2023-03-18T03:52:33;98190.94;;;8.42;39.49
63321;BME280;49449;48.800;9.534;2023-03-18T03:55:01;98195.28;;;8.17;39.56
63321;BME280;49449;48.800;9.534;2023-03-18T03:57:29;98181.91;;;8.19;39.59
63321;BME280;49449;48.800;9.534;2023-03-18T03:59:57;98193.50;;;8.30;39.60
63321;BME280;49449;48.800;9.534;2023-03-18T04:02:25;98203.97;;;8.36;39.54
63321;BME280;49449;48.800;9.534;2023-03-18T04:04:53;98196.66;;;8.39;39.40
63321;BME280;49449;48.800;9.534;2023-03-18T04:07:22;98192.28;;;8.32;39.63
63321;BME280;49449;48.800;9.534;2023-03-18T04:09:50;98201.56;;;8.16;39.69
63321;BME280;49449;48.800;9.534;2023-03-18T04:12:19;98198.94;;;8.16;39.86
63321;BME280;49449;48.800;9.534;2023-03-18T04:14:46;98201.72;;;8.22;39.54
63321;BME280;49449;48.800;9.534;2023-03-18T04:17:17;98202.53;;;8.22;39.62
63321;BME280;49449;48.800;9.534;2023-03-18T04:19:45;98195.34;;;8.29;39.65
63321;BME280;49449;48.800;9.534;2023-03-18T04:22:12;98205.72;;;8.24;39.37
63321;BME280;49449;48.800;9.534;2023-03-18T04:24:42;98210.34;;;8.29;39.77
63321;BME280;49449;48.800;9.534;2023-03-18T04:27:10;98200.53;;;8.36;39.51
63321;BME280;49449;48.800;9.534;2023-03-18T04:29:38;98204.53;;;8.39;39.34
63321;BME280;49449;48.800;9.534;2023-03-18T04:32:06;98198.63;;;8.43;39.14
63321;BME280;49449;48.800;9.534;2023-03-18T04:34:34;98199.44;;;8.44;39.15
63321;BME280;49449;48.800;9.534;2023-03-18T04:37:02;98207.09;;;8.45;39.09
63321;BME280;49449;48.800;9.534;2023-03-18T04:39:30;98206.31;;;8.45;40.15
63321;BME280;49449;48.800;9.534;2023-03-18T04:41:59;98209.66;;;8.33;39.99
63321;BME280;49449;48.800;9.534;2023-03-18T04:44:27;98208.38;;;8.24;39.41
63321;BME280;49449;48.800;9.534;2023-03-18T04:46:55;98211.06;;;8.17;39.39
63321;BME280;49449;48.800;9.534;2023-03-18T04:49:22;98204.00;;;8.18;39.29
63321;BME280;49449;48.800;9.534;2023-03-18T04:51:50;98218.69;;;8.26;39.31
63321;BME280;49449;48.800;9.534;2023-03-18T04:54:18;98219.19;;;8.34;39.03
63321;BME280;49449;48.800;9.534;2023-03-18T04:56:46;98213.41;;;8.26;39.23
63321;BME280;49449;48.800;9.534;2023-03-18T04:59:15;98219.84;;;8.30;38.84
63321;BME280;49449;48.800;9.534;2023-03-18T05:01:44;98219.19;;;8.34;38.99
63321;BME280;49449;48.800;9.534;2023-03-18T05:04:11;98216.56;;;8.34;38.94
63321;BME280;49449;48.800;9.534;2023-03-18T05:06:39;98215.41;;;8.30;38.80
63321;BME280;49449;48.800;9.534;2023-03-18T05:09:07;98218.97;;;8.36;39.07
63321;BME280;49449;48.800;9.534;2023-03-18T05:11:35;98213.69;;;8.36;38.88
63321;BME280;49449;48.800;9.534;2023-03-18T05:14:03;98208.44;;;8.36;38.58
63321;BME280;49449;48.800;9.534;2023-03-18T05:16:32;98217.19;;;8.30;38.81
63321;BME280;49449;48.800;9.534;2023-03-18T05:19:00;98218.38;;;8.34;38.75
63321;BME280;49449;48.800;9.534;2023-03-18T05:21:28;98226.72;;;8.31;38.52
63321;BME280;49449;48.800;9.534;2023-03-18T05:23:56;98218.81;;;8.31;38.61
63321;BME280;49449;48.800;9.534;2023-03-18T05:26:24;98219.47;;;8.26;38.62
63321;BME280;49449;48.800;9.534;2023-03-18T05:28:52;98221.31;;;8.26;38.80
63321;BME280;49449;48.800;9.534;2023-03-18T05:31:20;98224.16;;;8.24;38.61
63321;BME280;49449;48.800;9.534;2023-03-18T05:33:49;98218.31;;;8.22;38.53
63321;BME280;49449;48.800;9.534;2023-03-18T05:36:17;98222.19;;;8.20;38.54
63321;BME280;49449;48.800;9.534;2023-03-18T05:38:44;98219.78;;;8.18;38.60
63321;BME280;49449;48.800;9.534;2023-03-18T05:41:12;98228.91;;;8.15;38.64
63321;BME280;49449;48.800;9.534;2023-03-18T05:43:40;98234.03;;;8.10;38.59
63321;BME280;49449;48.800;9.534;2023-03-18T05:46:08;98232.63;;;8.08;38.51
63321;BME280;49449;48.800;9.534;2023-03-18T05:48:36;98225.75;;;8.07;38.49
63321;BME280;49449;48.800;9.534;2023-03-18T05:51:05;98222.53;;;8.05;38.53
63321;BME280;49449;48.800;9.534;2023-03-18T05:53:33;98227.00;;;8.04;38.66
63321;BME280;49449;48.800;9.534;2023-03-18T05:56:00;98227.59;;;8.06;38.43
63321;BME280;49449;48.800;9.534;2023-03-18T05:58:28;98230.50;;;7.98;38.67
63321;BME280;49449;48.800;9.534;2023-03-18T06:00:56;98230.28;;;8.00;38.63
63321;BME280;49449;48.800;9.534;2023-03-18T06:03:25;98232.91;;;8.00;38.69
63321;BME280;49449;48.800;9.534;2023-03-18T06:05:53;98233.75;;;8.00;38.72
63321;BME280;49449;48.800;9.534;2023-03-18T06:08:22;98230.66;;;8.03;38.72
63321;BME280;49449;48.800;9.534;2023-03-18T06:10:50;98236.94;;;8.02;38.91
63321;BME280;49449;48.800;9.534;2023-03-18T06:13:19;98240.16;;;8.04;39.59
63321;BME280;49449;48.800;9.534;2023-03-18T06:15:47;98239.59;;;8.02;41.53
63321;BME280;49449;48.800;9.534;2023-03-18T06:18:15;98242.00;;;8.04;41.24
63321;BME280;49449;48.800;9.534;2023-03-18T06:20:43;98239.88;;;8.12;39.74
63321;BME280;49449;48.800;9.534;2023-03-18T06:23:11;98239.44;;;8.15;39.39
63321;BME280;49449;48.800;9.534;2023-03-18T06:25:40;98241.13;;;8.10;38.97
63321;BME280;49449;48.800;9.534;2023-03-18T06:28:11;98243.31;;;8.13;39.07
63321;BME280;49449;48.800;9.534;2023-03-18T06:30:38;98248.94;;;8.16;38.58
63321;BME280;49449;48.800;9.534;2023-03-18T06:33:06;98257.63;;;8.17;38.69
63321;BME280;49449;48.800;9.534;2023-03-18T06:35:35;98257.22;;;8.20;38.87
63321;BME280;49449;48.800;9.534;2023-03-18T06:38:03;98251.50;;;8.23;38.58
63321;BME280;49449;48.800;9.534;2023-03-18T06:40:31;98250.25;;;8.26;38.66
63321;BME280;49449;48.800;9.534;2023-03-18T06:43:00;98251.06;;;8.26;38.75
63321;BME280;49449;48.800;9.534;2023-03-18T06:45:28;98253.63;;;8.33;38.55
63321;BME280;49449;48.800;9.534;2023-03-18T06:47:56;98252.59;;;8.34;38.66
63321;BME280;49449;48.800;9.534;2023-03-18T06:50:26;98254.34;;;8.40;38.68
63321;BME280;49449;48.800;9.534;2023-03-18T06:52:54;98259.91;;;8.50;38.36
63321;BME280;49449;48.800;9.534;2023-03-18T06:55:22;98261.78;;;8.62;38.43
63321;BME280;49449;48.800;9.534;2023-03-18T06:57:49;98254.38;;;8.70;38.52
63321;BME280;49449;48.800;9.534;2023-03-18T07:00:20;98262.81;;;8.79;38.08
63321;BME280;49449;48.800;9.534;2023-03-18T07:02:48;98257.25;;;8.87;37.88
63321;BME280;49449;48.800;9.534;2023-03-18T07:05:16;98259.13;;;8.99;37.85
63321;BME280;49449;48.800;9.534;2023-03-18T07:07:44;98261.59;;;9.12;37.74
63321;BME280;49449;48.800;9.534;2023-03-18T07:10:17;98261.06;;;9.34;37.41
63321;BME280;49449;48.800;9.534;2023-03-18T07:12:45;98267.28;;;9.51;37.30
63321;BME280;49449;48.800;9.534;2023-03-18T07:15:14;98274.66;;;9.61;37.30
63321;BME280;49449;48.800;9.534;2023-03-18T07:17:43;98269.84;;;9.70;37.08
63321;BME280;49449;48.800;9.534;2023-03-18T07:20:12;98275.13;;;9.70;36.99
63321;BME280;49449;48.800;9.534;2023-03-18T07:22:40;98283.19;;;9.86;36.45
63321;BME280;49449;48.800;9.534;2023-03-18T07:25:09;98275.38;;;10.03;36.56
63321;BME280;49449;48.800;9.534;2023-03-18T07:27:38;98275.81;;;10.24;36.46
63321;BME280;49449;48.800;9.534;2023-03-18T07:30:08;98278.09;;;10.44;36.45
63321;BME280;49449;48.800;9.534;2023-03-18T07:32:36;98276.91;;;10.63;36.16
63321;BME280;49449;48.800;9.534;2023-03-18T07:35:07;98271.72;;;10.69;36.18
63321;BME280;49449;48.800;9.534;2023-03-18T07:37:36;98275.13;;;10.81;36.57
63321;BME280;49449;48.800;9.534;2023-03-18T07:40:06;98275.78;;;11.00;35.82
63321;BME280;49449;48.800;9.534;2023-03-18T07:42:34;98273.88;;;11.12;35.74
63321;BME280;49449;48.800;9.534;2023-03-18T07:45:02;98276.69;;;11.23;35.43
63321;BME280;49449;48.800;9.534;2023-03-18T07:47:30;98271.66;;;11.38;34.96
63321;BME280;49449;48.800;9.534;2023-03-18T07:49:58;98265.81;;;11.53;34.61
63321;BME280;49449;48.800;9.534;2023-03-18T07:52:27;98269.25;;;11.70;34.32
63321;BME280;49449;48.800;9.534;2023-03-18T07:54:55;98266.00;;;11.80;34.10
63321;BME280;49449;48.800;9.534;2023-03-18T07:57:23;98263.75;;;11.89;34.09
63321;BME280;49449;48.800;9.534;2023-03-18T07:59:51;98270.00;;;12.00;33.98
63321;BME280;49449;48.800;9.534;2023-03-18T08:02:19;98274.69;;;12.14;34.13
63321;BME280;49449;48.800;9.534;2023-03-18T08:04:47;98277.31;;;12.31;33.91
63321;BME280;49449;48.800;9.534;2023-03-18T08:07:15;98271.66;;;12.45;33.61
63321;BME280;49449;48.800;9.534;2023-03-18T08:09:44;98276.81;;;12.57;33.61
63321;BME280;49449;48.800;9.534;2023-03-18T08:12:12;98277.59;;;12.74;33.92
63321;BME280;49449;48.800;9.534;2023-03-18T08:14:44;98279.13;;;12.92;34.22
63321;BME280;49449;48.800;9.534;2023-03-18T08:17:12;98279.03;;;13.09;33.82
63321;BME280;49449;48.800;9.534;2023-03-18T08:19:39;98279.44;;;13.23;33.47
63321;BME280;49449;48.800;9.534;2023-03-18T08:22:07;98279.28;;;13.35;33.31
63321;BME280;49449;48.800;9.534;2023-03-18T08:24:35;98278.84;;;13.48;33.16
63321;BME280;49449;48.800;9.534;2023-03-18T08:27:05;98280.06;;;13.62;32.84
63321;BME280;49449;48.800;9.534;2023-03-18T08:29:34;98276.72;;;13.77;32.84
63321;BME280;49449;48.800;9.534;2023-03-18T08:32:02;98281.09;;;13.94;32.52
63321;BME280;49449;48.800;9.534;2023-03-18T08:34:30;98282.47;;;14.07;32.11
63321;BME280;49449;48.800;9.534;2023-03-18T08:36:58;98280.44;;;14.19;32.29
63321;BME280;49449;48.800;9.534;2023-03-18T08:39:26;98279.19;;;14.37;32.17
63321;BME280;49449;48.800;9.534;2023-03-18T08:41:54;98272.94;;;14.53;31.63
63321;BME280;49449;48.800;9.534;2023-03-18T08:44:23;98280.16;;;14.68;31.92
63321;BME280;49449;48.800;9.534;2023-03-18T08:46:51;98272.22;;;14.78;31.62
63321;BME280;49449;48.800;9.534;2023-03-18T08:49:19;98280.22;;;14.94;30.99
63321;BME280;49449;48.800;9.534;2023-03-18T08:51:47;98274.16;;;15.14;30.51
63321;BME280;49449;48.800;9.534;2023-03-18T08:54:14;98271.81;;;15.33;30.67
63321;BME280;49449;48.800;9.534;2023-03-18T08:56:42;98266.50;;;15.43;29.02
63321;BME280;49449;48.800;9.534;2023-03-18T08:59:10;98267.03;;;15.61;29.22
63321;BME280;49449;48.800;9.534;2023-03-18T09:01:39;98258.75;;;15.72;28.86
63321;BME280;49449;48.800;9.534;2023-03-18T09:04:07;98256.88;;;15.78;28.60
63321;BME280;49449;48.800;9.534;2023-03-18T09:06:35;98253.66;;;15.86;27.72
63321;BME280;49449;48.800;9.534;2023-03-18T09:09:02;98254.19;;;15.99;28.14
63321;BME280;49449;48.800;9.534;2023-03-18T09:11:30;98243.25;;;16.11;27.34
63321;BME280;49449;48.800;9.534;2023-03-18T09:13:59;98246.41;;;16.28;27.34
63321;BME280;49449;48.800;9.534;2023-03-18T09:16:26;98243.16;;;16.36;26.46
63321;BME280;49449;48.800;9.534;2023-03-18T09:18:56;98248.97;;;16.48;26.57
63321;BME280;49449;48.800;9.534;2023-03-18T09:21:24;98239.59;;;16.61;25.76
63321;BME280;49449;48.800;9.534;2023-03-18T09:23:52;98241.41;;;16.71;25.59
63321;BME280;49449;48.800;9.534;2023-03-18T09:26:20;98244.28;;;16.85;25.59
63321;BME280;49449;48.800;9.534;2023-03-18T09:28:48;98240.44;;;17.01;25.57
63321;BME280;49449;48.800;9.534;2023-03-18T09:31:15;98240.88;;;17.19;25.13
63321;BME280;49449;48.800;9.534;2023-03-18T09:33:44;98238.91;;;17.30;24.51
63321;BME280;49449;48.800;9.534;2023-03-18T09:36:14;98233.22;;;17.41;24.62
63321;BME280;49449;48.800;9.534;2023-03-18T09:38:41;98233.34;;;17.60;24.71
63321;BME280;49449;48.800;9.534;2023-03-18T09:41:21;98228.66;;;17.76;24.39
63321;BME280;49449;48.800;9.534;2023-03-18T09:43:56;98226.63;;;17.92;23.19
63321;BME280;49449;48.800;9.534;2023-03-18T09:46:31;98229.25;;;17.97;23.01
63321;BME280;49449;48.800;9.534;2023-03-18T09:49:15;98226.63;;;18.16;22.09
63321;BME280;49449;48.800;9.534;2023-03-18T09:51:57;98218.03;;;18.20;21.55
63321;BME280;49449;48.800;9.534;2023-03-18T09:54:32;98220.28;;;18.37;22.10
63321;BME280;49449;48.800;9.534;2023-03-18T09:57:02;98214.94;;;18.56;22.12
63321;BME280;49449;48.800;9.534;2023-03-18T09:59:36;98213.38;;;18.73;22.43
63321;BME280;49449;48.800;9.534;2023-03-18T10:02:17;98218.19;;;18.90;22.34
63321;BME280;49449;48.800;9.534;2023-03-18T10:04:51;98216.97;;;18.83;20.24
63321;BME280;49449;48.800;9.534;2023-03-18T10:07:28;98220.66;;;18.87;20.30
63321;BME280;49449;48.800;9.534;2023-03-18T10:10:00;98227.13;;;19.05;21.29
63321;BME280;49449;48.800;9.534;2023-03-18T10:12:33;98228.34;;;19.13;20.30
63321;BME280;49449;48.800;9.534;2023-03-18T10:15:09;98226.59;;;19.22;21.37
63321;BME280;49449;48.800;9.534;2023-03-18T10:17:42;98226.22;;;19.28;20.27
63321;BME280;49449;48.800;9.534;2023-03-18T10:20:28;98216.25;;;19.48;20.74
63321;BME280;49449;48.800;9.534;2023-03-18T10:23:10;98212.06;;;19.42;18.86
63321;BME280;49449;48.800;9.534;2023-03-18T10:25:43;98191.84;;;19.49;20.42
63321;BME280;49449;48.800;9.534;2023-03-18T10:28:30;98198.44;;;19.38;17.65
63321;BME280;49449;48.800;9.534;2023-03-18T10:31:08;98198.59;;;19.14;18.44
63321;BME280;49449;48.800;9.534;2023-03-18T10:33:44;98192.16;;;18.77;18.02
63321;BME280;49449;48.800;9.534;2023-03-18T10:36:18;98196.59;;;18.68;17.96
63321;BME280;49449;48.800;9.534;2023-03-18T10:38:48;98190.06;;;18.36;18.48
63321;BME280;49449;48.800;9.534;2023-03-18T10:41:18;98185.53;;;18.56;18.99
63321;BME280;49449;48.800;9.534;2023-03-18T10:43:51;98192.75;;;18.55;18.02
63321;BME280;49449;48.800;9.534;2023-03-18T10:46:20;98171.41;;;18.31;18.90
63321;BME280;49449;48.800;9.534;2023-03-18T10:48:51;98172.66;;;18.58;19.41
63321;BME280;49449;48.800;9.534;2023-03-18T10:51:26;98179.50;;;18.45;19.15
63321;BME280;49449;48.800;9.534;2023-03-18T10:54:02;98178.75;;;18.20;19.36
63321;BME280;49449;48.800;9.534;2023-03-18T10:56:35;98175.25;;;18.44;18.64
63321;BME280;49449;48.800;9.534;2023-03-18T10:59:09;98169.69;;;18.59;17.81
63321;BME280;49449;48.800;9.534;2023-03-18T11:01:38;98162.75;;;18.77;17.82
63321;BME280;49449;48.800;9.534;2023-03-18T11:04:11;98161.06;;;18.62;16.51
63321;BME280;49449;48.800;9.534;2023-03-18T11:06:43;98157.53;;;18.67;17.23
63321;BME280;49449;48.800;9.534;2023-03-18T11:09:18;98154.94;;;18.62;16.48
63321;BME280;49449;48.800;9.534;2023-03-18T11:11:47;98162.56;;;18.30;16.51
63321;BME280;49449;48.800;9.534;2023-03-18T11:14:18;98160.84;;;17.96;16.31
63321;BME280;49449;48.800;9.534;2023-03-18T11:16:49;98158.09;;;18.02;16.98
63321;BME280;49449;48.800;9.534;2023-03-18T11:19:29;98158.88;;;18.02;16.90
63321;BME280;49449;48.800;9.534;2023-03-18T11:22:18;98152.31;;;17.94;17.60
63321;BME280;49449;48.800;9.534;2023-03-18T11:25:04;98154.84;;;18.29;16.42
63321;BME280;49449;48.800;9.534;2023-03-18T11:27:36;98153.78;;;18.30;16.90
63321;BME280;49449;48.800;9.534;2023-03-18T11:30:13;98144.00;;;18.39;17.34
63321;BME280;49449;48.800;9.534;2023-03-18T11:32:52;98138.53;;;18.49;16.88
63321;BME280;49449;48.800;9.534;2023-03-18T11:35:23;98135.28;;;18.52;16.33
63321;BME280;49449;48.800;9.534;2023-03-18T11:37:52;98139.09;;;18.27;15.97
63321;BME280;49449;48.800;9.534;2023-03-18T11:40:26;98144.13;;;17.62;16.20
63321;BME280;49449;48.800;9.534;2023-03-18T11:42:57;98137.78;;;17.52;16.24
63321;BME280;49449;48.800;9.534;2023-03-18T11:45:41;98137.25;;;17.79;16.97
63321;BME280;49449;48.800;9.534;2023-03-18T11:48:14;98127.31;;;18.04;16.73
63321;BME280;49449;48.800;9.534;2023-03-18T11:53:38;98123.56;;;18.29;16.56
63321;BME280;49449;48.800;9.534;2023-03-18T11:56:16;98121.47;;;18.26;15.96
63321;BME280;49449;48.800;9.534;2023-03-18T11:59:14;98123.84;;;18.28;17.61
63321;BME280;49449;48.800;9.534;2023-03-18T12:01:52;98116.25;;;18.35;17.11
63321;BME280;49449;48.800;9.534;2023-03-18T12:04:41;98112.41;;;18.60;17.29
63321;BME280;49449;48.800;9.534;2023-03-18T12:07:23;98097.47;;;18.59;16.31
63321;BME280;49449;48.800;9.534;2023-03-18T12:10:00;98099.19;;;18.69;16.87
63321;BME280;49449;48.800;9.534;2023-03-18T12:12:46;98092.59;;;18.80;16.37
63321;BME280;49449;48.800;9.534;2023-03-18T12:15:23;98090.97;;;18.98;16.87
63321;BME280;49449;48.800;9.534;2023-03-18T12:17:59;98083.78;;;19.26;17.23
63321;BME280;49449;48.800;9.534;2023-03-18T12:20:41;98082.41;;;19.57;17.21
63321;BME280;49449;48.800;9.534;2023-03-18T12:23:21;98083.91;;;19.49;16.88
63321;BME280;49449;48.800;9.534;2023-03-18T12:26:01;98084.97;;;19.48;17.04
63321;BME280;49449;48.800;9.534;2023-03-18T12:28:42;98080.50;;;19.43;15.70
63321;BME280;49449;48.800;9.534;2023-03-18T12:31:37;98079.06;;;19.65;16.56
63321;BME280;49449;48.800;9.534;2023-03-18T12:34:18;98075.00;;;19.67;16.96
63321;BME280;49449;48.800;9.534;2023-03-18T12:37:03;98075.28;;;19.80;18.08
63321;BME280;49449;48.800;9.534;2023-03-18T12:42:38;98070.69;;;19.80;17.81
63321;BME280;49449;48.800;9.534;2023-03-18T12:45:13;98076.50;;;19.74;15.94
63321;BME280;49449;48.800;9.534;2023-03-18T12:47:46;98061.50;;;19.73;15.77
63321;BME280;49449;48.800;9.534;2023-03-18T12:50:17;98065.16;;;19.77;16.16
63321;BME280;49449;48.800;9.534;2023-03-18T12:52:49;98057.84;;;19.69;17.90
63321;BME280;49449;48.800;9.534;2023-03-18T12:55:22;98058.31;;;19.71;16.64
63321;BME280;49449;48.800;9.534;2023-03-18T12:57:56;98058.97;;;19.48;16.90
63321;BME280;49449;48.800;9.534;2023-03-18T13:00:29;98051.97;;;19.53;17.70
63321;BME280;49449;48.800;9.534;2023-03-18T13:03:02;98047.38;;;19.39;16.59
63321;BME280;49449;48.800;9.534;2023-03-18T13:05:40;98056.69;;;19.42;17.60
63321;BME280;49449;48.800;9.534;2023-03-18T13:08:40;98053.53;;;19.40;17.77
63321;BME280;49449;48.800;9.534;2023-03-18T13:11:23;98042.91;;;19.35;16.06
63321;BME280;49449;48.800;9.534;2023-03-18T13:13:58;98036.97;;;19.52;16.77
63321;BME280;49449;48.800;9.534;2023-03-18T13:16:29;98035.38;;;19.64;17.45
63321;BME280;49449;48.800;9.534;2023-03-18T13:18:59;98042.25;;;19.71;18.15
63321;BME280;49449;48.800;9.534;2023-03-18T13:21:30;98047.50;;;19.76;16.71
63321;BME280;49449;48.800;9.534;2023-03-18T13:24:53;98033.91;;;19.72;17.96
63321;BME280;49449;48.800;9.534;2023-03-18T13:27:33;98034.91;;;19.62;16.80
63321;BME280;49449;48.800;9.534;2023-03-18T13:30:11;98032.59;;;19.42;16.54